sensor_id;sensor_type;location;lat;lon;timestamp;P1;durP1;ratioP1;P2;durP2;ratioP2
13026;SDS011;6580;42.680;23.324;2023-04-15T00:02:16;5.77;;;3.43;;
13026;SDS011;6580;42.680;23.324;2023-04-15T00:05:02;5.50;;;4.57;;
13026;SDS011;6580;42.680;23.324;2023-04-15T00:07:49;6.13;;;4.93;;
13026;SDS011;6580;42.680;23.324;2023-04-15T00:10:36;5.57;;;5.07;;
13026;SDS011;6580;42.680;23.324;2023-04-15T00:13:22;7.23;;;5.73;;
13026;SDS011;6580;42.680;23.324;2023-04-15T00:16:07;6.80;;;5.87;;
13026;SDS011;6580;42.680;23.324;2023-04-15T00:18:54;7.27;;;5.77;;
13026;SDS011;6580;42.680;23.324;2023-04-15T00:21:39;7.80;;;5.60;;
13026;SDS011;6580;42.680;23.324;2023-04-15T00:24:26;9.20;;;5.70;;
13026;SDS011;6580;42.680;23.324;2023-04-15T00:27:13;8.80;;;6.57;;
13026;SDS011;6580;42.680;23.324;2023-04-15T00:29:59;7.77;;;5.77;;
13026;SDS011;6580;42.680;23.324;2023-04-15T00:32:44;6.17;;;5.57;;
13026;SDS011;6580;42.680;23.324;2023-04-15T00:35:29;6.70;;;5.53;;
13026;SDS011;6580;42.680;23.324;2023-04-15T00:38:15;8.77;;;5.97;;
13026;SDS011;6580;42.680;23.324;2023-04-15T00:41:02;7.87;;;5.37;;
13026;SDS011;6580;42.680;23.324;2023-04-15T00:43:48;8.60;;;5.97;;
13026;SDS011;6580;42.680;23.324;2023-04-15T00:46:34;7.37;;;5.53;;
13026;SDS011;6580;42.680;23.324;2023-04-15T00:49:21;6.80;;;5.50;;
13026;SDS011;6580;42.680;23.324;2023-04-15T00:52:06;7.43;;;5.50;;
13026;SDS011;6580;42.680;23.324;2023-04-15T00:54:54;5.33;;;4.83;;
13026;SDS011;6580;42.680;23.324;2023-04-15T00:57:42;5.93;;;4.77;;
13026;SDS011;6580;42.680;23.324;2023-04-15T01:00:28;7.40;;;4.67;;
13026;SDS011;6580;42.680;23.324;2023-04-15T01:03:14;6.87;;;4.70;;
13026;SDS011;6580;42.680;23.324;2023-04-15T01:06:00;5.43;;;4.13;;
13026;SDS011;6580;42.680;23.324;2023-04-15T01:08:46;5.03;;;4.17;;
13026;SDS011;6580;42.680;23.324;2023-04-15T01:11:32;5.60;;;4.30;;
13026;SDS011;6580;42.680;23.324;2023-04-15T01:14:19;6.30;;;4.63;;
13026;SDS011;6580;42.680;23.324;2023-04-15T01:17:05;5.87;;;4.10;;
13026;SDS011;6580;42.680;23.324;2023-04-15T01:19:50;6.17;;;4.50;;
13026;SDS011;6580;42.680;23.324;2023-04-15T01:22:36;5.93;;;4.20;;
13026;SDS011;6580;42.680;23.324;2023-04-15T01:25:27;7.30;;;4.40;;
13026;SDS011;6580;42.680;23.324;2023-04-15T01:28:16;6.17;;;4.20;;
13026;SDS011;6580;42.680;23.324;2023-04-15T01:31:08;5.33;;;4.23;;
13026;SDS011;6580;42.680;23.324;2023-04-15T01:33:55;6.93;;;4.63;;
13026;SDS011;6580;42.680;23.324;2023-04-15T01:36:41;5.37;;;4.23;;
13026;SDS011;6580;42.680;23.324;2023-04-15T01:39:26;6.07;;;4.37;;
13026;SDS011;6580;42.680;23.324;2023-04-15T01:42:14;5.13;;;4.60;;
13026;SDS011;6580;42.680;23.324;2023-04-15T01:44:59;5.13;;;4.60;;
13026;SDS011;6580;42.680;23.324;2023-04-15T01:47:45;4.93;;;4.20;;
13026;SDS011;6580;42.680;23.324;2023-04-15T01:50:30;5.30;;;4.70;;
13026;SDS011;6580;42.680;23.324;2023-04-15T01:53:15;5.83;;;4.90;;
13026;SDS011;6580;42.680;23.324;2023-04-15T01:56:01;5.63;;;4.43;;
13026;SDS011;6580;42.680;23.324;2023-04-15T01:58:50;4.97;;;4.13;;
13026;SDS011;6580;42.680;23.324;2023-04-15T02:01:35;5.60;;;5.10;;
13026;SDS011;6580;42.680;23.324;2023-04-15T02:04:21;5.83;;;4.17;;
13026;SDS011;6580;42.680;23.324;2023-04-15T02:07:06;5.47;;;4.10;;
13026;SDS011;6580;42.680;23.324;2023-04-15T02:09:52;5.03;;;4.53;;
13026;SDS011;6580;42.680;23.324;2023-04-15T02:12:37;5.00;;;4.47;;
13026;SDS011;6580;42.680;23.324;2023-04-15T02:15:24;5.83;;;4.63;;
13026;SDS011;6580;42.680;23.324;2023-04-15T02:18:10;4.93;;;4.10;;
13026;SDS011;6580;42.680;23.324;2023-04-15T02:20:55;6.30;;;4.67;;
13026;SDS011;6580;42.680;23.324;2023-04-15T02:23:41;5.90;;;4.40;;
13026;SDS011;6580;42.680;23.324;2023-04-15T02:26:27;6.63;;;4.37;;
13026;SDS011;6580;42.680;23.324;2023-04-15T02:29:14;5.10;;;4.13;;
13026;SDS011;6580;42.680;23.324;2023-04-15T02:32:01;5.27;;;4.33;;
13026;SDS011;6580;42.680;23.324;2023-04-15T02:34:46;4.87;;;3.90;;
13026;SDS011;6580;42.680;23.324;2023-04-15T02:37:32;7.53;;;4.30;;
13026;SDS011;6580;42.680;23.324;2023-04-15T02:40:19;5.97;;;3.93;;
13026;SDS011;6580;42.680;23.324;2023-04-15T02:43:05;4.73;;;4.10;;
13026;SDS011;6580;42.680;23.324;2023-04-15T02:45:51;4.50;;;4.07;;
13026;SDS011;6580;42.680;23.324;2023-04-15T02:48:38;4.30;;;3.90;;
13026;SDS011;6580;42.680;23.324;2023-04-15T02:51:23;4.37;;;3.97;;
13026;SDS011;6580;42.680;23.324;2023-04-15T02:54:08;5.43;;;4.90;;
13026;SDS011;6580;42.680;23.324;2023-04-15T02:56:54;8.33;;;5.93;;
13026;SDS011;6580;42.680;23.324;2023-04-15T02:59:39;7.80;;;6.13;;
13026;SDS011;6580;42.680;23.324;2023-04-15T03:02:25;6.23;;;5.30;;
13026;SDS011;6580;42.680;23.324;2023-04-15T03:05:12;7.47;;;6.63;;
13026;SDS011;6580;42.680;23.324;2023-04-15T03:07:58;7.80;;;6.50;;
13026;SDS011;6580;42.680;23.324;2023-04-15T03:10:45;7.57;;;6.40;;
13026;SDS011;6580;42.680;23.324;2023-04-15T03:13:31;8.70;;;6.40;;
13026;SDS011;6580;42.680;23.324;2023-04-15T03:16:16;6.97;;;5.63;;
13026;SDS011;6580;42.680;23.324;2023-04-15T03:19:02;8.10;;;6.07;;
13026;SDS011;6580;42.680;23.324;2023-04-15T03:21:49;6.27;;;5.60;;
13026;SDS011;6580;42.680;23.324;2023-04-15T03:24:34;5.63;;;4.90;;
13026;SDS011;6580;42.680;23.324;2023-04-15T03:27:20;7.67;;;5.03;;
13026;SDS011;6580;42.680;23.324;2023-04-15T03:30:06;6.50;;;4.87;;
13026;SDS011;6580;42.680;23.324;2023-04-15T03:32:52;5.67;;;4.60;;
13026;SDS011;6580;42.680;23.324;2023-04-15T03:35:37;5.33;;;4.57;;
13026;SDS011;6580;42.680;23.324;2023-04-15T03:38:24;5.87;;;4.70;;
13026;SDS011;6580;42.680;23.324;2023-04-15T03:41:09;7.40;;;4.90;;
13026;SDS011;6580;42.680;23.324;2023-04-15T03:43:55;6.57;;;4.47;;
13026;SDS011;6580;42.680;23.324;2023-04-15T03:46:41;5.10;;;4.37;;
13026;SDS011;6580;42.680;23.324;2023-04-15T03:49:26;4.90;;;4.40;;
13026;SDS011;6580;42.680;23.324;2023-04-15T03:52:12;4.63;;;4.20;;
13026;SDS011;6580;42.680;23.324;2023-04-15T03:54:59;4.67;;;3.87;;
13026;SDS011;6580;42.680;23.324;2023-04-15T03:57:45;5.23;;;4.10;;
13026;SDS011;6580;42.680;23.324;2023-04-15T04:00:30;4.90;;;4.10;;
13026;SDS011;6580;42.680;23.324;2023-04-15T04:03:16;5.43;;;4.03;;
13026;SDS011;6580;42.680;23.324;2023-04-15T04:06:01;5.90;;;4.50;;
13026;SDS011;6580;42.680;23.324;2023-04-15T04:08:47;4.97;;;4.20;;
13026;SDS011;6580;42.680;23.324;2023-04-15T04:11:34;6.43;;;4.67;;
13026;SDS011;6580;42.680;23.324;2023-04-15T04:14:20;6.80;;;5.47;;
13026;SDS011;6580;42.680;23.324;2023-04-15T04:17:12;8.67;;;5.40;;
13026;SDS011;6580;42.680;23.324;2023-04-15T04:19:57;6.53;;;5.47;;
13026;SDS011;6580;42.680;23.324;2023-04-15T04:22:42;7.43;;;5.93;;
13026;SDS011;6580;42.680;23.324;2023-04-15T04:25:28;8.93;;;6.47;;
13026;SDS011;6580;42.680;23.324;2023-04-15T04:28:15;8.03;;;6.37;;
13026;SDS011;6580;42.680;23.324;2023-04-15T04:31:00;7.53;;;6.40;;
13026;SDS011;6580;42.680;23.324;2023-04-15T04:33:45;7.33;;;6.20;;
13026;SDS011;6580;42.680;23.324;2023-04-15T04:36:31;7.17;;;6.47;;
13026;SDS011;6580;42.680;23.324;2023-04-15T04:39:16;10.50;;;7.43;;
13026;SDS011;6580;42.680;23.324;2023-04-15T04:42:02;8.63;;;6.83;;
13026;SDS011;6580;42.680;23.324;2023-04-15T04:44:49;8.30;;;6.33;;
13026;SDS011;6580;42.680;23.324;2023-04-15T04:47:34;7.97;;;7.00;;
13026;SDS011;6580;42.680;23.324;2023-04-15T04:50:20;11.40;;;8.10;;
13026;SDS011;6580;42.680;23.324;2023-04-15T04:53:05;8.10;;;6.60;;
13026;SDS011;6580;42.680;23.324;2023-04-15T04:55:51;8.83;;;6.60;;
13026;SDS011;6580;42.680;23.324;2023-04-15T04:58:36;7.53;;;6.73;;
13026;SDS011;6580;42.680;23.324;2023-04-15T05:01:24;7.83;;;6.40;;
13026;SDS011;6580;42.680;23.324;2023-04-15T05:04:10;6.30;;;5.63;;
13026;SDS011;6580;42.680;23.324;2023-04-15T05:06:55;7.17;;;6.37;;
13026;SDS011;6580;42.680;23.324;2023-04-15T05:09:42;8.20;;;6.20;;
13026;SDS011;6580;42.680;23.324;2023-04-15T05:12:28;7.20;;;6.50;;
13026;SDS011;6580;42.680;23.324;2023-04-15T05:15:14;6.90;;;5.97;;
13026;SDS011;6580;42.680;23.324;2023-04-15T05:18:01;6.93;;;5.60;;
13026;SDS011;6580;42.680;23.324;2023-04-15T05:20:46;6.87;;;5.83;;
13026;SDS011;6580;42.680;23.324;2023-04-15T05:23:32;6.90;;;5.63;;
13026;SDS011;6580;42.680;23.324;2023-04-15T05:26:17;6.50;;;5.63;;
13026;SDS011;6580;42.680;23.324;2023-04-15T05:29:04;5.93;;;5.33;;
13026;SDS011;6580;42.680;23.324;2023-04-15T05:31:49;5.97;;;5.37;;
13026;SDS011;6580;42.680;23.324;2023-04-15T05:34:38;6.13;;;5.60;;
13026;SDS011;6580;42.680;23.324;2023-04-15T05:37:24;6.33;;;5.73;;
13026;SDS011;6580;42.680;23.324;2023-04-15T05:40:10;8.10;;;5.90;;
13026;SDS011;6580;42.680;23.324;2023-04-15T05:42:56;6.17;;;5.00;;
13026;SDS011;6580;42.680;23.324;2023-04-15T05:45:41;5.50;;;5.00;;
13026;SDS011;6580;42.680;23.324;2023-04-15T05:48:27;5.90;;;5.17;;
13026;SDS011;6580;42.680;23.324;2023-04-15T05:51:13;6.40;;;4.82;;
13026;SDS011;6580;42.680;23.324;2023-04-15T05:53:59;5.30;;;4.80;;
13026;SDS011;6580;42.680;23.324;2023-04-15T05:56:45;5.32;;;4.65;;
13026;SDS011;6580;42.680;23.324;2023-04-15T05:59:30;5.75;;;5.15;;
13026;SDS011;6580;42.680;23.324;2023-04-15T06:02:15;6.57;;;4.97;;
13026;SDS011;6580;42.680;23.324;2023-04-15T06:05:01;4.88;;;4.38;;
13026;SDS011;6580;42.680;23.324;2023-04-15T06:07:53;6.15;;;5.03;;
13026;SDS011;6580;42.680;23.324;2023-04-15T06:10:41;6.18;;;4.63;;
13026;SDS011;6580;42.680;23.324;2023-04-15T06:13:29;6.13;;;4.82;;
13026;SDS011;6580;42.680;23.324;2023-04-15T06:16:14;4.88;;;4.40;;
13026;SDS011;6580;42.680;23.324;2023-04-15T06:19:00;5.13;;;4.57;;
13026;SDS011;6580;42.680;23.324;2023-04-15T06:21:45;6.25;;;4.80;;
13026;SDS011;6580;42.680;23.324;2023-04-15T06:27:47;5.35;;;4.72;;
13026;SDS011;6580;42.680;23.324;2023-04-15T06:30:33;5.28;;;4.70;;
13026;SDS011;6580;42.680;23.324;2023-04-15T06:33:19;5.47;;;4.95;;
13026;SDS011;6580;42.680;23.324;2023-04-15T06:36:04;5.20;;;4.70;;
13026;SDS011;6580;42.680;23.324;2023-04-15T06:38:50;5.00;;;4.50;;
13026;SDS011;6580;42.680;23.324;2023-04-15T06:41:36;6.18;;;4.20;;
13026;SDS011;6580;42.680;23.324;2023-04-15T06:44:22;4.57;;;4.18;;
13026;SDS011;6580;42.680;23.324;2023-04-15T06:47:07;6.20;;;4.53;;
13026;SDS011;6580;42.680;23.324;2023-04-15T06:49:53;4.90;;;4.32;;
13026;SDS011;6580;42.680;23.324;2023-04-15T06:52:39;6.57;;;4.80;;
13026;SDS011;6580;42.680;23.324;2023-04-15T06:55:25;6.95;;;4.95;;
13026;SDS011;6580;42.680;23.324;2023-04-15T06:58:12;7.30;;;5.28;;
13026;SDS011;6580;42.680;23.324;2023-04-15T07:00:57;5.40;;;4.90;;
13026;SDS011;6580;42.680;23.324;2023-04-15T07:03:43;5.10;;;4.60;;
13026;SDS011;6580;42.680;23.324;2023-04-15T07:06:28;5.57;;;5.07;;
13026;SDS011;6580;42.680;23.324;2023-04-15T07:09:17;8.35;;;5.78;;
13026;SDS011;6580;42.680;23.324;2023-04-15T07:12:03;5.60;;;5.10;;
13026;SDS011;6580;42.680;23.324;2023-04-15T07:14:49;6.18;;;4.75;;
13026;SDS011;6580;42.680;23.324;2023-04-15T07:17:35;5.28;;;4.78;;
13026;SDS011;6580;42.680;23.324;2023-04-15T07:20:21;5.70;;;5.10;;
13026;SDS011;6580;42.680;23.324;2023-04-15T07:23:07;6.55;;;5.07;;
13026;SDS011;6580;42.680;23.324;2023-04-15T07:25:53;7.00;;;5.30;;
13026;SDS011;6580;42.680;23.324;2023-04-15T07:28:40;5.30;;;4.70;;
13026;SDS011;6580;42.680;23.324;2023-04-15T07:31:29;5.15;;;4.60;;
13026;SDS011;6580;42.680;23.324;2023-04-15T07:34:14;5.97;;;4.78;;
13026;SDS011;6580;42.680;23.324;2023-04-15T07:37:00;5.38;;;4.75;;
13026;SDS011;6580;42.680;23.324;2023-04-15T07:39:47;6.00;;;4.65;;
13026;SDS011;6580;42.680;23.324;2023-04-15T07:42:32;5.20;;;4.57;;
13026;SDS011;6580;42.680;23.324;2023-04-15T07:45:18;5.18;;;4.68;;
13026;SDS011;6580;42.680;23.324;2023-04-15T07:48:06;4.03;;;3.67;;
13026;SDS011;6580;42.680;23.324;2023-04-15T07:50:52;4.75;;;4.20;;
13026;SDS011;6580;42.680;23.324;2023-04-15T07:53:38;5.55;;;4.78;;
13026;SDS011;6580;42.680;23.324;2023-04-15T07:56:23;4.32;;;3.90;;
13026;SDS011;6580;42.680;23.324;2023-04-15T07:59:10;5.22;;;3.70;;
13026;SDS011;6580;42.680;23.324;2023-04-15T08:02:06;4.10;;;3.70;;
13026;SDS011;6580;42.680;23.324;2023-04-15T08:04:54;4.18;;;3.50;;
13026;SDS011;6580;42.680;23.324;2023-04-15T08:07:40;4.72;;;3.63;;
13026;SDS011;6580;42.680;23.324;2023-04-15T08:10:25;3.72;;;3.40;;
13026;SDS011;6580;42.680;23.324;2023-04-15T08:13:13;3.53;;;2.90;;
13026;SDS011;6580;42.680;23.324;2023-04-15T08:16:18;3.08;;;2.63;;
13026;SDS011;6580;42.680;23.324;2023-04-15T08:19:04;3.10;;;2.80;;
13026;SDS011;6580;42.680;23.324;2023-04-15T08:21:53;2.63;;;2.42;;
13026;SDS011;6580;42.680;23.324;2023-04-15T08:24:40;2.20;;;2.00;;
13026;SDS011;6580;42.680;23.324;2023-04-15T08:27:25;2.60;;;1.90;;
13026;SDS011;6580;42.680;23.324;2023-04-15T08:30:11;4.18;;;2.00;;
13026;SDS011;6580;42.680;23.324;2023-04-15T08:32:57;3.15;;;2.25;;
13026;SDS011;6580;42.680;23.324;2023-04-15T08:35:43;2.15;;;1.90;;
13026;SDS011;6580;42.680;23.324;2023-04-15T08:38:29;2.22;;;1.90;;
13026;SDS011;6580;42.680;23.324;2023-04-15T08:41:17;1.80;;;1.65;;
13026;SDS011;6580;42.680;23.324;2023-04-15T08:44:06;3.80;;;2.53;;
13026;SDS011;6580;42.680;23.324;2023-04-15T08:46:51;3.78;;;2.40;;
13026;SDS011;6580;42.680;23.324;2023-04-15T08:49:39;2.55;;;1.52;;
13026;SDS011;6580;42.680;23.324;2023-04-15T08:52:27;1.63;;;1.52;;
13026;SDS011;6580;42.680;23.324;2023-04-15T08:55:16;2.38;;;1.77;;
13026;SDS011;6580;42.680;23.324;2023-04-15T08:58:01;1.75;;;1.65;;
13026;SDS011;6580;42.680;23.324;2023-04-15T09:00:47;2.25;;;2.00;;
13026;SDS011;6580;42.680;23.324;2023-04-15T09:03:33;1.75;;;1.45;;
13026;SDS011;6580;42.680;23.324;2023-04-15T09:06:20;2.75;;;2.00;;
13026;SDS011;6580;42.680;23.324;2023-04-15T09:09:06;2.13;;;1.70;;
13026;SDS011;6580;42.680;23.324;2023-04-15T09:11:54;1.95;;;1.73;;
13026;SDS011;6580;42.680;23.324;2023-04-15T09:14:41;1.85;;;1.75;;
13026;SDS011;6580;42.680;23.324;2023-04-15T09:17:31;3.78;;;2.10;;
13026;SDS011;6580;42.680;23.324;2023-04-15T09:20:18;3.80;;;2.10;;
13026;SDS011;6580;42.680;23.324;2023-04-15T09:23:10;5.30;;;3.50;;
13026;SDS011;6580;42.680;23.324;2023-04-15T09:26:00;3.53;;;3.22;;
13026;SDS011;6580;42.680;23.324;2023-04-15T09:28:47;5.28;;;3.28;;
13026;SDS011;6580;42.680;23.324;2023-04-15T09:31:33;2.95;;;2.63;;
13026;SDS011;6580;42.680;23.324;2023-04-15T09:34:22;3.08;;;2.88;;
13026;SDS011;6580;42.680;23.324;2023-04-15T09:37:30;3.55;;;3.25;;
13026;SDS011;6580;42.680;23.324;2023-04-15T09:40:32;2.72;;;2.38;;
13026;SDS011;6580;42.680;23.324;2023-04-15T09:43:18;3.42;;;2.55;;
13026;SDS011;6580;42.680;23.324;2023-04-15T09:46:06;2.95;;;2.67;;
13026;SDS011;6580;42.680;23.324;2023-04-15T09:49:06;2.63;;;2.33;;
13026;SDS011;6580;42.680;23.324;2023-04-15T09:51:56;3.30;;;1.95;;
13026;SDS011;6580;42.680;23.324;2023-04-15T09:54:43;2.58;;;2.38;;
13026;SDS011;6580;42.680;23.324;2023-04-15T09:57:33;2.90;;;2.08;;
13026;SDS011;6580;42.680;23.324;2023-04-15T10:00:20;2.28;;;2.08;;
13026;SDS011;6580;42.680;23.324;2023-04-15T10:03:08;2.33;;;1.92;;
13026;SDS011;6580;42.680;23.324;2023-04-15T10:05:56;2.88;;;2.30;;
13026;SDS011;6580;42.680;23.324;2023-04-15T10:08:43;2.75;;;1.73;;
13026;SDS011;6580;42.680;23.324;2023-04-15T10:11:29;2.33;;;2.13;;
13026;SDS011;6580;42.680;23.324;2023-04-15T10:14:20;2.17;;;1.92;;
13026;SDS011;6580;42.680;23.324;2023-04-15T10:17:05;2.33;;;2.13;;
13026;SDS011;6580;42.680;23.324;2023-04-15T10:19:56;2.08;;;1.88;;
13026;SDS011;6580;42.680;23.324;2023-04-15T10:22:41;2.92;;;2.30;;
13026;SDS011;6580;42.680;23.324;2023-04-15T10:25:29;2.25;;;2.15;;
13026;SDS011;6580;42.680;23.324;2023-04-15T10:28:14;2.20;;;2.00;;
13026;SDS011;6580;42.680;23.324;2023-04-15T10:31:00;1.92;;;1.75;;
13026;SDS011;6580;42.680;23.324;2023-04-15T10:33:46;2.28;;;1.98;;
13026;SDS011;6580;42.680;23.324;2023-04-15T10:36:33;2.53;;;1.75;;
13026;SDS011;6580;42.680;23.324;2023-04-15T10:42:24;1.05;;;0.88;;
13026;SDS011;6580;42.680;23.324;2023-04-15T10:45:18;2.35;;;1.48;;
13026;SDS011;6580;42.680;23.324;2023-04-15T10:48:04;2.00;;;0.90;;
13026;SDS011;6580;42.680;23.324;2023-04-15T10:50:55;1.33;;;1.05;;
13026;SDS011;6580;42.680;23.324;2023-04-15T10:53:56;1.88;;;0.98;;
13026;SDS011;6580;42.680;23.324;2023-04-15T10:56:44;1.25;;;0.88;;
13026;SDS011;6580;42.680;23.324;2023-04-15T10:59:29;1.10;;;1.00;;
13026;SDS011;6580;42.680;23.324;2023-04-15T11:02:15;1.60;;;1.08;;
13026;SDS011;6580;42.680;23.324;2023-04-15T11:05:00;1.42;;;1.05;;
13026;SDS011;6580;42.680;23.324;2023-04-15T11:07:50;0.82;;;0.75;;
13026;SDS011;6580;42.680;23.324;2023-04-15T11:13:46;1.02;;;1.02;;
13026;SDS011;6580;42.680;23.324;2023-04-15T11:16:40;2.70;;;1.20;;
13026;SDS011;6580;42.680;23.324;2023-04-15T11:19:34;1.08;;;1.00;;
13026;SDS011;6580;42.680;23.324;2023-04-15T11:22:21;0.63;;;0.63;;
13026;SDS011;6580;42.680;23.324;2023-04-15T11:25:09;1.65;;;1.30;;
13026;SDS011;6580;42.680;23.324;2023-04-15T11:27:56;1.35;;;1.25;;
13026;SDS011;6580;42.680;23.324;2023-04-15T11:30:43;2.72;;;1.60;;
13026;SDS011;6580;42.680;23.324;2023-04-15T11:33:29;0.90;;;0.90;;
13026;SDS011;6580;42.680;23.324;2023-04-15T11:36:14;1.38;;;0.95;;
13026;SDS011;6580;42.680;23.324;2023-04-15T11:39:00;1.00;;;1.00;;
13026;SDS011;6580;42.680;23.324;2023-04-15T11:41:45;1.15;;;0.90;;
13026;SDS011;6580;42.680;23.324;2023-04-15T11:44:32;1.52;;;1.10;;
13026;SDS011;6580;42.680;23.324;2023-04-15T11:47:23;1.35;;;0.80;;
13026;SDS011;6580;42.680;23.324;2023-04-15T11:50:12;1.30;;;1.20;;
13026;SDS011;6580;42.680;23.324;2023-04-15T11:52:59;1.75;;;1.65;;
13026;SDS011;6580;42.680;23.324;2023-04-15T11:55:47;0.80;;;0.80;;
13026;SDS011;6580;42.680;23.324;2023-04-15T12:01:43;1.48;;;0.90;;
13026;SDS011;6580;42.680;23.324;2023-04-15T12:04:30;1.40;;;1.20;;
13026;SDS011;6580;42.680;23.324;2023-04-15T12:07:15;1.30;;;1.20;;
13026;SDS011;6580;42.680;23.324;2023-04-15T12:10:01;1.60;;;1.10;;
13026;SDS011;6580;42.680;23.324;2023-04-15T12:12:47;2.00;;;1.35;;
13026;SDS011;6580;42.680;23.324;2023-04-15T12:15:36;1.15;;;1.00;;
13026;SDS011;6580;42.680;23.324;2023-04-15T12:18:24;1.33;;;1.23;;
13026;SDS011;6580;42.680;23.324;2023-04-15T12:21:10;2.25;;;1.42;;
13026;SDS011;6580;42.680;23.324;2023-04-15T12:23:56;2.35;;;1.60;;
13026;SDS011;6580;42.680;23.324;2023-04-15T12:26:46;1.75;;;1.65;;
13026;SDS011;6580;42.680;23.324;2023-04-15T12:29:33;1.10;;;1.00;;
13026;SDS011;6580;42.680;23.324;2023-04-15T12:32:19;1.48;;;1.35;;
13026;SDS011;6580;42.680;23.324;2023-04-15T12:35:07;1.52;;;1.30;;
13026;SDS011;6580;42.680;23.324;2023-04-15T12:37:53;1.58;;;1.10;;
13026;SDS011;6580;42.680;23.324;2023-04-15T12:40:38;1.67;;;1.58;;
13026;SDS011;6580;42.680;23.324;2023-04-15T12:43:24;1.17;;;0.90;;
13026;SDS011;6580;42.680;23.324;2023-04-15T12:46:09;1.25;;;1.00;;
13026;SDS011;6580;42.680;23.324;2023-04-15T12:48:55;3.17;;;1.00;;
13026;SDS011;6580;42.680;23.324;2023-04-15T12:51:43;1.55;;;1.27;;
13026;SDS011;6580;42.680;23.324;2023-04-15T12:54:29;1.67;;;1.05;;
13026;SDS011;6580;42.680;23.324;2023-04-15T12:57:15;1.00;;;0.98;;
13026;SDS011;6580;42.680;23.324;2023-04-15T13:00:00;1.35;;;1.08;;
13026;SDS011;6580;42.680;23.324;2023-04-15T13:02:49;1.25;;;1.15;;
13026;SDS011;6580;42.680;23.324;2023-04-15T13:05:34;1.20;;;1.10;;
13026;SDS011;6580;42.680;23.324;2023-04-15T13:08:23;2.35;;;1.95;;
13026;SDS011;6580;42.680;23.324;2023-04-15T13:11:09;1.20;;;1.10;;
13026;SDS011;6580;42.680;23.324;2023-04-15T13:13:54;0.90;;;0.90;;
13026;SDS011;6580;42.680;23.324;2023-04-15T13:16:39;1.10;;;0.70;;
13026;SDS011;6580;42.680;23.324;2023-04-15T13:19:25;3.00;;;1.20;;
13026;SDS011;6580;42.680;23.324;2023-04-15T13:22:10;1.48;;;0.95;;
13026;SDS011;6580;42.680;23.324;2023-04-15T13:24:59;1.20;;;1.10;;
13026;SDS011;6580;42.680;23.324;2023-04-15T13:27:44;2.30;;;1.27;;
13026;SDS011;6580;42.680;23.324;2023-04-15T13:30:30;0.88;;;0.88;;
13026;SDS011;6580;42.680;23.324;2023-04-15T13:33:16;1.25;;;1.15;;
13026;SDS011;6580;42.680;23.324;2023-04-15T13:36:02;1.10;;;1.10;;
13026;SDS011;6580;42.680;23.324;2023-04-15T13:38:47;1.23;;;1.23;;
13026;SDS011;6580;42.680;23.324;2023-04-15T13:41:34;1.27;;;1.17;;
13026;SDS011;6580;42.680;23.324;2023-04-15T13:44:20;1.63;;;1.13;;
13026;SDS011;6580;42.680;23.324;2023-04-15T13:47:05;1.23;;;1.00;;
13026;SDS011;6580;42.680;23.324;2023-04-15T13:49:51;1.08;;;0.95;;
13026;SDS011;6580;42.680;23.324;2023-04-15T13:52:39;1.20;;;1.10;;
13026;SDS011;6580;42.680;23.324;2023-04-15T13:55:24;0.93;;;0.88;;
13026;SDS011;6580;42.680;23.324;2023-04-15T13:58:11;1.25;;;1.15;;
13026;SDS011;6580;42.680;23.324;2023-04-15T14:00:56;2.30;;;1.00;;
13026;SDS011;6580;42.680;23.324;2023-04-15T14:03:42;1.83;;;1.00;;
13026;SDS011;6580;42.680;23.324;2023-04-15T14:06:27;0.85;;;0.85;;
13026;SDS011;6580;42.680;23.324;2023-04-15T14:09:14;2.42;;;1.30;;
13026;SDS011;6580;42.680;23.324;2023-04-15T14:11:59;1.10;;;1.10;;
13026;SDS011;6580;42.680;23.324;2023-04-15T14:14:46;1.75;;;1.25;;
13026;SDS011;6580;42.680;23.324;2023-04-15T14:17:32;1.65;;;1.02;;
13026;SDS011;6580;42.680;23.324;2023-04-15T14:20:17;1.98;;;0.70;;
13026;SDS011;6580;42.680;23.324;2023-04-15T14:23:03;1.70;;;0.90;;
13026;SDS011;6580;42.680;23.324;2023-04-15T14:25:49;1.30;;;1.00;;
13026;SDS011;6580;42.680;23.324;2023-04-15T14:28:35;0.70;;;0.70;;
13026;SDS011;6580;42.680;23.324;2023-04-15T14:31:22;1.10;;;0.98;;
13026;SDS011;6580;42.680;23.324;2023-04-15T14:34:07;1.10;;;0.90;;
13026;SDS011;6580;42.680;23.324;2023-04-15T14:36:53;1.27;;;1.00;;
13026;SDS011;6580;42.680;23.324;2023-04-15T14:39:38;0.80;;;0.70;;
13026;SDS011;6580;42.680;23.324;2023-04-15T14:42:23;1.65;;;1.00;;
13026;SDS011;6580;42.680;23.324;2023-04-15T14:45:09;1.35;;;1.10;;
13026;SDS011;6580;42.680;23.324;2023-04-15T14:47:57;1.00;;;0.70;;
13026;SDS011;6580;42.680;23.324;2023-04-15T14:50:43;3.72;;;1.42;;
13026;SDS011;6580;42.680;23.324;2023-04-15T14:53:28;1.63;;;0.90;;
13026;SDS011;6580;42.680;23.324;2023-04-15T14:56:15;0.90;;;0.90;;
13026;SDS011;6580;42.680;23.324;2023-04-15T14:59:00;2.20;;;1.70;;
13026;SDS011;6580;42.680;23.324;2023-04-15T15:01:46;2.72;;;1.70;;
13026;SDS011;6580;42.680;23.324;2023-04-15T15:07:21;2.58;;;1.80;;
13026;SDS011;6580;42.680;23.324;2023-04-15T15:10:07;1.23;;;1.17;;
13026;SDS011;6580;42.680;23.324;2023-04-15T15:12:53;1.90;;;0.98;;
13026;SDS011;6580;42.680;23.324;2023-04-15T15:15:39;1.38;;;1.27;;
13026;SDS011;6580;42.680;23.324;2023-04-15T15:18:24;1.10;;;1.10;;
13026;SDS011;6580;42.680;23.324;2023-04-15T15:21:11;1.92;;;1.35;;
13026;SDS011;6580;42.680;23.324;2023-04-15T15:23:56;1.35;;;1.00;;
13026;SDS011;6580;42.680;23.324;2023-04-15T15:26:42;0.70;;;0.70;;
13026;SDS011;6580;42.680;23.324;2023-04-15T15:29:27;1.45;;;1.10;;
13026;SDS011;6580;42.680;23.324;2023-04-15T15:32:12;1.15;;;0.90;;
13026;SDS011;6580;42.680;23.324;2023-04-15T15:34:57;1.02;;;1.00;;
13026;SDS011;6580;42.680;23.324;2023-04-15T15:37:44;1.75;;;1.25;;
13026;SDS011;6580;42.680;23.324;2023-04-15T15:40:30;2.30;;;2.10;;
13026;SDS011;6580;42.680;23.324;2023-04-15T15:43:18;1.02;;;1.00;;
13026;SDS011;6580;42.680;23.324;2023-04-15T15:46:03;2.17;;;0.85;;
13026;SDS011;6580;42.680;23.324;2023-04-15T15:48:50;2.03;;;1.90;;
13026;SDS011;6580;42.680;23.324;2023-04-15T15:51:36;1.58;;;1.40;;
13026;SDS011;6580;42.680;23.324;2023-04-15T15:54:23;1.40;;;1.27;;
13026;SDS011;6580;42.680;23.324;2023-04-15T15:57:09;2.15;;;1.40;;
13026;SDS011;6580;42.680;23.324;2023-04-15T15:59:54;2.58;;;1.20;;
13026;SDS011;6580;42.680;23.324;2023-04-15T16:02:42;1.85;;;1.42;;
13026;SDS011;6580;42.680;23.324;2023-04-15T16:05:27;1.58;;;1.20;;
13026;SDS011;6580;42.680;23.324;2023-04-15T16:08:13;0.90;;;0.90;;
13026;SDS011;6580;42.680;23.324;2023-04-15T16:11:00;1.80;;;1.55;;
13026;SDS011;6580;42.680;23.324;2023-04-15T16:13:45;1.35;;;1.23;;
13026;SDS011;6580;42.680;23.324;2023-04-15T16:16:30;1.38;;;1.15;;
13026;SDS011;6580;42.680;23.324;2023-04-15T16:19:16;1.65;;;1.55;;
13026;SDS011;6580;42.680;23.324;2023-04-15T16:22:01;1.38;;;1.02;;
13026;SDS011;6580;42.680;23.324;2023-04-15T16:24:47;1.23;;;1.13;;
13026;SDS011;6580;42.680;23.324;2023-04-15T16:27:33;1.90;;;1.10;;
13026;SDS011;6580;42.680;23.324;2023-04-15T16:30:19;1.83;;;1.25;;
13026;SDS011;6580;42.680;23.324;2023-04-15T16:33:05;1.35;;;1.25;;
13026;SDS011;6580;42.680;23.324;2023-04-15T16:35:51;1.45;;;1.30;;
13026;SDS011;6580;42.680;23.324;2023-04-15T16:38:36;2.58;;;1.20;;
13026;SDS011;6580;42.680;23.324;2023-04-15T16:41:22;3.78;;;1.67;;
13026;SDS011;6580;42.680;23.324;2023-04-15T16:44:09;3.50;;;1.80;;
13026;SDS011;6580;42.680;23.324;2023-04-15T16:46:56;1.40;;;1.30;;
13026;SDS011;6580;42.680;23.324;2023-04-15T16:49:41;2.55;;;1.58;;
13026;SDS011;6580;42.680;23.324;2023-04-15T16:52:27;1.48;;;1.23;;
13026;SDS011;6580;42.680;23.324;2023-04-15T16:55:12;2.38;;;1.58;;
13026;SDS011;6580;42.680;23.324;2023-04-15T16:57:58;1.75;;;1.50;;
13026;SDS011;6580;42.680;23.324;2023-04-15T17:00:46;1.63;;;1.30;;